createdAt,value
2023-02-05T00:01:08.885Z,102142.62
2023-02-05T00:03:42.788Z,102141.59
2023-02-05T00:06:10.891Z,102142.48
2023-02-05T00:08:38.775Z,102142.19
2023-02-05T00:11:10.003Z,102144.06
2023-02-05T00:13:41.841Z,102142.15
2023-02-05T00:16:17.119Z,102143.15
2023-02-05T00:18:46.002Z,102141.05
2023-02-05T00:21:14.853Z,102134.05
2023-02-05T00:23:43.283Z,102132.63
2023-02-05T00:26:13.510Z,102137.82
2023-02-05T00:28:42.593Z,102140.38
2023-02-05T00:31:13.799Z,102143.97
2023-02-05T00:33:42.868Z,102145.64
2023-02-05T00:36:12.947Z,102146.56
2023-02-05T00:38:43.282Z,102149.35
2023-02-05T00:41:12.193Z,102149.14
2023-02-05T00:43:41.498Z,102151.21
2023-02-05T00:46:10.816Z,102148.75
2023-02-05T00:48:40.111Z,102147.41
2023-02-05T00:51:10.708Z,102152.77
2023-02-05T00:53:38.761Z,102155.20
2023-02-05T00:56:07.061Z,102158.70
2023-02-05T00:58:36.951Z,102167.51
2023-02-05T01:01:06.152Z,102168.44
2023-02-05T01:03:34.580Z,102177.13
2023-02-05T01:06:03.511Z,102175.84
2023-02-05T01:08:32.101Z,102175.67
2023-02-05T01:11:01.361Z,102175.71
2023-02-05T01:13:29.402Z,102169.95
2023-02-05T01:15:57.486Z,102170.80
2023-02-05T01:18:25.549Z,102163.58
2023-02-05T01:20:53.632Z,102159.17
2023-02-05T01:23:21.874Z,102158.48
2023-02-05T01:25:49.890Z,102153.37
2023-02-05T01:28:19.143Z,102153.36
2023-02-05T01:30:49.518Z,102151.58
2023-02-05T01:33:19.400Z,102156.02
2023-02-05T01:35:47.395Z,102155.44
2023-02-05T01:38:15.971Z,102156.74
2023-02-05T01:40:44.183Z,102158.30
2023-02-05T01:43:18.087Z,102152.73
2023-02-05T01:45:51.072Z,102161.68
2023-02-05T01:48:25.106Z,102156.29
2023-02-05T01:50:57.388Z,102155.19
2023-02-05T01:53:30.073Z,102159.25
2023-02-05T01:56:01.564Z,102150.50
2023-02-05T01:58:40.844Z,102149.00
2023-02-05T02:01:08.866Z,102152.27
2023-02-05T02:03:38.640Z,102148.91
2023-02-05T02:06:06.885Z,102150.60
2023-02-05T02:08:34.975Z,102148.66
2023-02-05T02:11:06.609Z,102149.10
2023-02-05T02:13:36.972Z,102150.27
2023-02-05T02:16:07.955Z,102151.58
2023-02-05T02:18:38.204Z,102149.09
2023-02-05T02:21:28.827Z,102157.46
2023-02-05T02:24:17.198Z,102156.09
2023-02-05T02:27:12.781Z,102153.39
2023-02-05T02:29:58.830Z,102148.66
2023-02-05T02:32:41.319Z,102151.81
2023-02-05T02:35:36.780Z,102153.24
2023-02-05T02:38:17.141Z,102163.15
2023-02-05T02:40:52.248Z,102165.23
2023-02-05T02:43:34.583Z,102169.76
2023-02-05T02:46:08.317Z,102171.98
2023-02-05T02:48:39.939Z,102172.88
2023-02-05T02:51:10.227Z,102175.66
2023-02-05T02:53:45.262Z,102174.64
2023-02-05T02:56:16.509Z,102176.81
2023-02-05T02:58:53.214Z,102174.39
2023-02-05T03:01:25.744Z,102173.49
2023-02-05T03:04:08.567Z,102172.52
2023-02-05T03:06:40.119Z,102174.91
2023-02-05T03:09:22.328Z,102173.67
2023-02-05T03:11:50.362Z,102177.82
2023-02-05T03:14:19.685Z,102183.17
2023-02-05T03:16:47.930Z,102179.74
2023-02-05T03:19:16.599Z,102174.77
2023-02-05T03:21:50.535Z,102173.81
2023-02-05T03:24:18.625Z,102171.14
2023-02-05T03:26:46.639Z,102169.64
2023-02-05T03:29:27.392Z,102169.28
2023-02-05T03:32:19.434Z,102165.39
2023-02-05T03:34:53.776Z,102163.09
2023-02-05T03:37:31.419Z,102164.94
2023-02-05T03:40:05.133Z,102166.11
2023-02-05T03:42:42.918Z,102159.27
2023-02-05T03:45:17.933Z,102163.82
2023-02-05T03:48:15.956Z,102167.83
2023-02-05T03:50:47.891Z,102170.52
2023-02-05T03:53:30.945Z,102166.81
2023-02-05T03:56:35.547Z,102168.11
2023-02-05T03:59:05.821Z,102163.63
2023-02-05T04:05:22.925Z,102166.20
2023-02-05T04:07:52.469Z,102164.14
2023-02-05T04:10:22.378Z,102164.77
2023-02-05T04:12:51.516Z,102165.95
2023-02-05T04:15:20.321Z,102164.83
2023-02-05T04:17:51.585Z,102158.05
2023-02-05T04:20:19.941Z,102161.89
2023-02-05T04:22:48.303Z,102162.48
2023-02-05T04:25:17.165Z,102161.97
2023-02-05T04:27:46.407Z,102170.52
2023-02-05T04:34:37.904Z,102173.06
2023-02-05T04:37:09.765Z,102181.35
2023-02-05T04:39:38.045Z,102181.92
2023-02-05T04:42:06.098Z,102181.04
2023-02-05T04:44:34.340Z,102189.64
2023-02-05T04:47:02.357Z,102190.27
2023-02-05T04:49:32.586Z,102186.78
2023-02-05T04:52:01.161Z,102193.20
2023-02-05T04:54:30.019Z,102188.16
2023-02-05T04:56:58.120Z,102189.50
2023-02-05T04:59:26.475Z,102191.79
2023-02-05T05:01:54.510Z,102195.10
2023-02-05T05:04:23.151Z,102189.68
2023-02-05T05:06:51.131Z,102193.23
2023-02-05T05:09:21.077Z,102192.48
2023-02-05T05:11:49.189Z,102192.71
2023-02-05T05:14:17.133Z,102188.98
2023-02-05T05:16:46.803Z,102190.84
2023-02-05T05:19:14.818Z,102192.77
2023-02-05T05:21:42.944Z,102195.20
2023-02-05T05:24:11.189Z,102197.33
2023-02-05T05:26:43.875Z,102195.03
2023-02-05T05:29:12.754Z,102202.21
2023-02-05T05:31:41.737Z,102206.39
2023-02-05T05:34:09.918Z,102208.48
2023-02-05T05:36:40.237Z,102209.19
2023-02-05T05:39:26.961Z,102206.88
2023-02-05T05:42:13.451Z,102211.47
2023-02-05T05:44:42.474Z,102214.11
2023-02-05T05:47:10.459Z,102213.74
2023-02-05T05:49:38.449Z,102217.44
2023-02-05T05:52:06.390Z,102219.88
2023-02-05T05:54:34.383Z,102224.38
2023-02-05T05:57:02.490Z,102225.83
2023-02-05T05:59:31.230Z,102223.41
2023-02-05T06:02:04.285Z,102226.83
2023-02-05T06:04:32.419Z,102223.60
2023-02-05T06:07:02.376Z,102221.95
2023-02-05T06:09:30.618Z,102223.69
2023-02-05T06:11:58.752Z,102222.52
2023-02-05T06:14:26.883Z,102227.53
2023-02-05T06:16:55.991Z,102226.00
2023-02-05T06:19:24.241Z,102227.08
2023-02-05T06:21:52.526Z,102238.89
2023-02-05T06:24:21.467Z,102240.27
2023-02-05T06:26:49.559Z,102245.79
2023-02-05T06:29:19.110Z,102247.23
2023-02-05T06:31:47.541Z,102258.08
2023-02-05T06:34:15.581Z,102260.41
2023-02-05T06:36:43.724Z,102264.61
2023-02-05T06:39:11.802Z,102261.27
2023-02-05T06:41:40.082Z,102262.80
2023-02-05T06:44:08.240Z,102263.02
2023-02-05T06:46:36.472Z,102265.20
2023-02-05T06:49:04.601Z,102265.95
2023-02-05T06:51:32.948Z,102268.08
2023-02-05T06:54:01.457Z,102263.25
2023-02-05T06:56:29.596Z,102266.34
2023-02-05T06:58:57.601Z,102262.77
2023-02-05T07:01:25.813Z,102264.25
2023-02-05T07:03:56.242Z,102264.52
2023-02-05T07:06:25.298Z,102270.48
2023-02-05T07:08:53.792Z,102269.66
2023-02-05T07:11:23.648Z,102275.27
2023-02-05T07:13:52.605Z,102276.95
2023-02-05T07:16:20.944Z,102281.25
2023-02-05T07:18:48.914Z,102284.52
2023-02-05T07:21:17.527Z,102285.60
2023-02-05T07:23:46.225Z,102287.76
2023-02-05T07:26:16.532Z,102284.60
2023-02-05T07:28:45.612Z,102278.30
2023-02-05T07:31:16.494Z,102276.31
2023-02-05T07:33:46.723Z,102272.02
2023-02-05T07:36:17.762Z,102274.46
2023-02-05T07:38:47.906Z,102277.52
2023-02-05T07:41:17.718Z,102280.00
2023-02-05T07:43:46.253Z,102284.60
2023-02-05T07:46:15.313Z,102288.20
2023-02-05T07:48:43.479Z,102290.92
2023-02-05T07:51:30.113Z,102295.52
2023-02-05T07:53:58.291Z,102293.29
2023-02-05T07:56:26.462Z,102290.59
2023-02-05T07:58:54.835Z,102290.49
2023-02-05T08:01:22.885Z,102293.77
2023-02-05T08:03:50.986Z,102297.61
2023-02-05T08:06:19.007Z,102293.28
2023-02-05T08:08:47.044Z,102294.58
2023-02-05T08:11:16.498Z,102291.36
2023-02-05T08:13:45.836Z,102295.23
2023-02-05T08:16:15.945Z,102302.98
2023-02-05T08:18:49.245Z,102306.80
2023-02-05T08:21:19.780Z,102310.77
2023-02-05T08:23:49.301Z,102320.04
2023-02-05T08:26:18.743Z,102324.50
2023-02-05T08:28:46.853Z,102324.92
2023-02-05T08:31:18.904Z,102321.95
2023-02-05T08:33:47.968Z,102325.56
2023-02-05T08:36:15.985Z,102329.58
2023-02-05T08:38:44.100Z,102334.60
2023-02-05T08:41:12.895Z,102340.64
2023-02-05T08:43:49.689Z,102337.23
2023-02-05T08:46:21.075Z,102340.69
2023-02-05T08:48:49.586Z,102341.65
2023-02-05T08:51:19.752Z,102342.86
2023-02-05T08:53:47.967Z,102343.53
2023-02-05T08:56:19.233Z,102349.39
2023-02-05T08:58:48.652Z,102346.18
2023-02-05T09:01:17.617Z,102356.79
2023-02-05T09:03:46.396Z,102366.60
2023-02-05T09:06:15.931Z,102366.83
2023-02-05T09:08:44.082Z,102367.84
2023-02-05T09:11:13.547Z,102371.80
2023-02-05T09:13:41.799Z,102370.94
2023-02-05T09:16:12.850Z,102381.80
2023-02-05T09:18:41.209Z,102384.30
2023-02-05T09:21:11.024Z,102388.47
2023-02-05T09:23:39.372Z,102393.42
2023-02-05T09:26:09.420Z,102395.44
2023-02-05T09:28:38.694Z,102400.23
2023-02-05T09:31:09.225Z,102400.51
2023-02-05T09:33:37.897Z,102404.80
2023-02-05T09:36:13.032Z,102410.14
2023-02-05T09:38:42.036Z,102410.83
2023-02-05T09:41:13.279Z,102404.95
2023-02-05T09:44:17.203Z,102399.14
2023-02-05T09:46:56.546Z,102397.71
2023-02-05T09:49:38.747Z,102397.02
2023-02-05T09:52:27.312Z,102393.39
2023-02-05T09:55:01.447Z,102389.20
2023-02-05T09:57:34.341Z,102386.63
2023-02-05T10:00:05.654Z,102388.91
2023-02-05T10:02:51.010Z,102385.46
2023-02-05T10:05:24.972Z,102387.96
2023-02-05T10:08:22.913Z,102388.31
2023-02-05T10:10:54.321Z,102388.51
2023-02-05T10:13:31.444Z,102389.94
2023-02-05T10:16:29.838Z,102392.44
2023-02-05T10:19:16.656Z,102390.57
2023-02-05T10:21:47.865Z,102386.06
2023-02-05T10:24:41.364Z,102388.88
2023-02-05T10:27:19.160Z,102380.57
2023-02-05T10:30:07.117Z,102380.09
2023-02-05T10:32:57.642Z,102378.38
2023-02-05T10:35:44.438Z,102382.36
2023-02-05T10:38:39.427Z,102379.19
2023-02-05T10:41:12.335Z,102377.92
2023-02-05T10:44:00.292Z,102369.86
2023-02-05T10:46:35.720Z,102366.17
2023-02-05T10:49:12.507Z,102366.66
2023-02-05T10:51:43.769Z,102370.38
2023-02-05T10:54:26.429Z,102369.39
2023-02-05T10:56:58.955Z,102364.41
2023-02-05T10:59:36.570Z,102363.17
2023-02-05T11:04:46.008Z,102356.30
2023-02-05T11:07:33.042Z,102358.28
2023-02-05T11:10:15.594Z,102359.06
2023-02-05T11:12:46.823Z,102353.10
2023-02-05T11:15:33.705Z,102347.69
2023-02-05T11:18:05.527Z,102348.70
2023-02-05T11:20:35.758Z,102342.52
2023-02-05T11:23:06.647Z,102339.98
2023-02-05T11:25:35.563Z,102340.33
2023-02-05T11:28:05.792Z,102342.21
2023-02-05T11:30:54.304Z,102345.29
2023-02-05T11:33:22.824Z,102341.30
2023-02-05T11:35:57.028Z,102346.94
2023-02-05T11:38:33.538Z,102354.06
2023-02-05T11:41:06.864Z,102354.36
2023-02-05T11:43:38.334Z,102356.11
2023-02-05T11:46:16.493Z,102352.36
2023-02-05T11:48:56.775Z,102347.20
2023-02-05T11:51:29.770Z,102346.33
2023-02-05T11:54:01.362Z,102341.05
2023-02-05T11:56:29.621Z,102344.58
2023-02-05T11:59:19.403Z,102342.07
2023-02-05T12:01:48.410Z,102344.98
2023-02-05T12:04:20.523Z,102348.52
2023-02-05T12:07:15.483Z,102345.95
2023-02-05T12:09:43.730Z,102345.29
2023-02-05T12:12:28.878Z,102343.91
2023-02-05T12:15:15.625Z,102337.85
2023-02-05T12:18:01.855Z,102336.89
2023-02-05T12:20:42.883Z,102337.50
2023-02-05T12:23:48.196Z,102332.02
2023-02-05T12:26:40.636Z,102333.78
2023-02-05T12:29:44.163Z,102331.63
2023-02-05T12:32:27.680Z,102324.89
2023-02-05T12:34:58.919Z,102323.25
2023-02-05T12:37:52.183Z,102320.44
2023-02-05T12:40:30.046Z,102318.39
2023-02-05T12:43:02.862Z,102324.88
2023-02-05T12:45:39.273Z,102330.21
2023-02-05T12:48:39.063Z,102329.40
2023-02-05T12:51:19.827Z,102332.55
2023-02-05T12:54:13.142Z,102332.85
2023-02-05T12:56:55.241Z,102330.26
2023-02-05T13:00:03.509Z,102322.52
2023-02-05T13:02:49.893Z,102326.45
2023-02-05T13:05:56.492Z,102324.98
2023-02-05T13:08:45.575Z,102329.36
2023-02-05T13:11:25.441Z,102325.48
2023-02-05T13:14:11.913Z,102327.01
2023-02-05T13:16:54.156Z,102322.98
2023-02-05T13:19:41.135Z,102325.77
2023-02-05T13:22:39.418Z,102328.60
2023-02-05T13:25:38.942Z,102330.52
2023-02-05T13:28:41.088Z,102333.70
2023-02-05T13:31:25.116Z,102339.80
2023-02-05T13:33:56.717Z,102339.86
2023-02-05T13:36:24.806Z,102344.08
2023-02-05T13:39:11.563Z,102341.85
2023-02-05T13:42:01.124Z,102343.19
2023-02-05T13:45:01.461Z,102340.72
2023-02-05T13:47:47.627Z,102347.33
2023-02-05T13:50:28.188Z,102344.59
2023-02-05T13:53:14.453Z,102340.73
2023-02-05T13:56:14.378Z,102342.16
2023-02-05T13:58:49.605Z,102340.10
2023-02-05T14:01:18.244Z,102337.79
2023-02-05T14:03:59.536Z,102340.48
2023-02-05T14:06:41.159Z,102342.52
2023-02-05T14:09:24.752Z,102342.64
2023-02-05T14:11:59.291Z,102338.99
2023-02-05T14:14:34.926Z,102332.75
2023-02-05T14:17:28.861Z,102331.47
2023-02-05T14:19:58.960Z,102331.10
2023-02-05T14:22:42.480Z,102337.25
2023-02-05T14:25:38.132Z,102338.52
2023-02-05T14:28:09.013Z,102340.16
2023-02-05T14:30:51.947Z,102337.86
2023-02-05T14:33:26.269Z,102337.34
2023-02-05T14:36:10.860Z,102339.51
2023-02-05T14:38:42.194Z,102341.48
2023-02-05T14:41:14.648Z,102343.60
2023-02-05T14:43:46.737Z,102347.25
2023-02-05T14:46:25.535Z,102347.82
2023-02-05T14:48:58.240Z,102352.15
2023-02-05T14:51:31.479Z,102353.31
2023-02-05T14:54:05.336Z,102353.92
2023-02-05T14:56:46.791Z,102360.65
2023-02-05T14:59:20.940Z,102366.69
2023-02-05T15:01:54.267Z,102367.95
2023-02-05T15:04:49.630Z,102369.09
2023-02-05T15:07:27.721Z,102375.05
2023-02-05T15:10:18.437Z,102372.77
2023-02-05T15:12:49.674Z,102378.11
2023-02-05T15:15:28.006Z,102381.83
2023-02-05T15:18:02.615Z,102380.14
2023-02-05T15:20:36.060Z,102383.29
2023-02-05T15:23:06.477Z,102384.30
2023-02-05T15:25:42.666Z,102387.95
2023-02-05T15:28:29.613Z,102389.39
2023-02-05T15:31:17.473Z,102392.95
2023-02-05T15:33:58.770Z,102396.10
2023-02-05T15:36:46.279Z,102397.65
2023-02-05T15:39:30.440Z,102402.98
2023-02-05T15:42:01.554Z,102407.77
2023-02-05T15:44:31.979Z,102410.02
2023-02-05T15:47:04.722Z,102410.41
2023-02-05T15:49:46.076Z,102409.16
2023-02-05T15:52:23.336Z,102409.31
2023-02-05T15:54:55.562Z,102411.92
2023-02-05T15:57:29.756Z,102406.73
2023-02-05T16:00:00.853Z,102403.09
2023-02-05T16:02:57.530Z,102403.48
2023-02-05T16:05:27.500Z,102402.20
2023-02-05T16:07:57.563Z,102403.48
2023-02-05T16:10:28.995Z,102404.51
2023-02-05T16:13:14.341Z,102404.14
2023-02-05T16:15:45.472Z,102404.10
2023-02-05T16:18:20.516Z,102405.66
2023-02-05T16:20:57.632Z,102406.79
2023-02-05T16:23:31.909Z,102410.86
2023-02-05T16:26:15.896Z,102420.76
2023-02-05T16:28:58.811Z,102428.24
2023-02-05T16:31:29.977Z,102426.66
2023-02-05T16:34:05.710Z,102425.39
2023-02-05T16:36:38.897Z,102428.21
2023-02-05T16:39:30.125Z,102428.60
2023-02-05T16:42:17.542Z,102433.02
2023-02-05T16:44:48.710Z,102434.25
2023-02-05T16:47:20.205Z,102431.27
2023-02-05T16:49:49.728Z,102432.77
2023-02-05T16:52:36.460Z,102437.21
2023-02-05T16:55:07.652Z,102437.50
2023-02-05T16:57:38.942Z,102442.45
2023-02-05T17:00:23.952Z,102440.09
2023-02-05T17:02:59.107Z,102440.61
2023-02-05T17:05:29.366Z,102441.15
2023-02-05T17:08:09.150Z,102445.15
2023-02-05T17:10:52.912Z,102444.71
2023-02-05T17:13:42.516Z,102444.31
2023-02-05T17:16:30.941Z,102439.35
2023-02-05T17:19:00.957Z,102441.27
2023-02-05T17:21:34.515Z,102447.20
2023-02-05T17:24:06.380Z,102443.88
2023-02-05T17:26:39.535Z,102437.24
2023-02-05T17:29:13.928Z,102437.72
2023-02-05T17:31:42.305Z,102437.16
2023-02-05T17:34:11.810Z,102433.90
2023-02-05T17:36:39.832Z,102432.77
2023-02-05T17:39:07.988Z,102439.02
2023-02-05T17:41:55.977Z,102451.44
2023-02-05T17:44:24.357Z,102460.40
2023-02-05T17:46:54.395Z,102461.61
2023-02-05T17:49:22.778Z,102469.75
2023-02-05T17:51:50.949Z,102470.11
2023-02-05T17:54:21.858Z,102469.90
2023-02-05T17:56:51.051Z,102470.61
2023-02-05T17:59:22.418Z,102476.11
2023-02-05T18:01:51.871Z,102477.70
2023-02-05T18:04:20.373Z,102478.90
2023-02-05T18:06:49.996Z,102477.35
2023-02-05T18:09:20.478Z,102484.40
2023-02-05T18:11:48.773Z,102483.95
2023-02-05T18:14:16.929Z,102487.14
2023-02-05T18:16:45.614Z,102487.20
2023-02-05T18:19:14.083Z,102485.63
2023-02-05T18:21:42.506Z,102485.14
2023-02-05T18:24:10.542Z,102488.13
2023-02-05T18:26:38.626Z,102492.48
2023-02-05T18:29:06.737Z,102494.98
2023-02-05T18:31:35.376Z,102493.31
2023-02-05T18:34:03.575Z,102486.38
2023-02-05T18:36:31.652Z,102483.05
2023-02-05T18:38:59.794Z,102484.27
2023-02-05T18:41:28.943Z,102481.59
2023-02-05T18:43:58.433Z,102482.27
2023-02-05T18:46:26.626Z,102478.09
2023-02-05T18:48:55.790Z,102475.34
2023-02-05T18:51:24.182Z,102475.44
2023-02-05T18:53:52.313Z,102471.10
2023-02-05T18:56:26.671Z,102475.60
2023-02-05T18:59:02.443Z,102473.80
2023-02-05T19:04:42.396Z,102474.34
2023-02-05T19:07:10.467Z,102475.29
2023-02-05T19:09:38.468Z,102477.73
2023-02-05T19:12:07.011Z,102482.40
2023-02-05T19:14:35.091Z,102485.98
2023-02-05T19:17:03.291Z,102486.62
2023-02-05T19:19:32.040Z,102485.04
2023-02-05T19:22:02.127Z,102495.34
2023-02-05T19:24:30.436Z,102487.74
2023-02-05T19:27:02.097Z,102482.87
2023-02-05T19:29:30.717Z,102477.02
2023-02-05T19:31:59.070Z,102473.77
2023-02-05T19:34:27.963Z,102473.31
2023-02-05T19:36:56.138Z,102471.52
2023-02-05T19:39:25.302Z,102468.77
2023-02-05T19:41:53.486Z,102473.91
2023-02-05T19:44:21.544Z,102479.13
2023-02-05T19:46:50.510Z,102482.39
2023-02-05T19:49:21.057Z,102491.54
2023-02-05T19:51:55.296Z,102492.64
2023-02-05T19:54:23.709Z,102494.70
2023-02-05T19:56:51.973Z,102496.73
2023-02-05T19:59:21.440Z,102500.60
2023-02-05T20:01:50.058Z,102502.51
2023-02-05T20:04:24.948Z,102510.92
2023-02-05T20:06:58.878Z,102512.23
2023-02-05T20:09:27.790Z,102511.46
2023-02-05T20:11:56.865Z,102519.84
2023-02-05T20:14:25.170Z,102520.05
2023-02-05T20:16:54.154Z,102520.74
2023-02-05T20:19:22.898Z,102523.52
2023-02-05T20:21:51.189Z,102527.31
2023-02-05T20:24:19.275Z,102527.09
2023-02-05T20:26:50.284Z,102531.88
2023-02-05T20:29:36.867Z,102537.17
2023-02-05T20:32:05.585Z,102544.21
2023-02-05T20:34:35.959Z,102541.06
2023-02-05T20:37:07.438Z,102537.52
2023-02-05T20:39:39.679Z,102542.51
2023-02-05T20:42:10.700Z,102543.32
2023-02-05T20:44:39.410Z,102540.13
2023-02-05T20:47:10.690Z,102551.63
2023-02-05T20:49:40.272Z,102558.39
2023-02-05T20:52:11.902Z,102561.04
2023-02-05T20:54:41.352Z,102561.28
2023-02-05T20:57:09.602Z,102563.53
2023-02-05T20:59:38.799Z,102563.77
2023-02-05T21:02:07.365Z,102568.27
2023-02-05T21:04:36.727Z,102572.06
2023-02-05T21:07:04.954Z,102575.69
2023-02-05T21:09:33.339Z,102571.67
2023-02-05T21:12:01.501Z,102567.75
2023-02-05T21:14:29.697Z,102569.05
2023-02-05T21:16:57.677Z,102567.14
2023-02-05T21:19:25.676Z,102564.77
2023-02-05T21:21:53.907Z,102564.45
2023-02-05T21:24:22.067Z,102568.46
2023-02-05T21:26:50.358Z,102574.17
2023-02-05T21:29:21.026Z,102575.35
2023-02-05T21:31:55.910Z,102580.42
2023-02-05T21:34:28.085Z,102594.14
2023-02-05T21:36:56.651Z,102594.92
2023-02-05T21:39:25.758Z,102588.48
2023-02-05T21:41:54.536Z,102593.46
2023-02-05T21:44:23.061Z,102600.48
2023-02-05T21:46:53.354Z,102602.59
2023-02-05T21:49:22.269Z,102605.32
2023-02-05T21:51:53.573Z,102603.61
2023-02-05T21:54:25.596Z,102607.54
2023-02-05T21:56:54.551Z,102611.32
2023-02-05T21:59:22.936Z,102609.66
2023-02-05T22:01:52.080Z,102609.20
2023-02-05T22:04:21.495Z,102615.49
2023-02-05T22:06:50.220Z,102621.21
2023-02-05T22:09:18.492Z,102618.67
2023-02-05T22:11:52.606Z,102622.37
2023-02-05T22:14:20.578Z,102625.78
2023-02-05T22:16:48.715Z,102626.10
2023-02-05T22:19:17.019Z,102628.73
2023-02-05T22:21:45.409Z,102627.70
2023-02-05T22:24:16.566Z,102630.52
2023-02-05T22:26:45.796Z,102624.60
2023-02-05T22:29:16.657Z,102629.59
2023-02-05T22:31:46.623Z,102633.51
2023-02-05T22:34:14.623Z,102630.31
2023-02-05T22:36:42.852Z,102629.17
2023-02-05T22:39:11.239Z,102629.38
2023-02-05T22:41:42.684Z,102625.91
2023-02-05T22:44:11.657Z,102626.27
2023-02-05T22:46:44.583Z,102629.13
2023-02-05T22:49:15.524Z,102630.37
2023-02-05T22:51:45.290Z,102629.33
2023-02-05T22:54:15.404Z,102623.71
2023-02-05T22:56:44.508Z,102623.08
2023-02-05T22:59:13.195Z,102617.80
2023-02-05T23:01:41.378Z,102617.23
2023-02-05T23:04:10.284Z,102612.18
2023-02-05T23:06:41.079Z,102617.15
2023-02-05T23:09:16.338Z,102617.27
2023-02-05T23:11:44.832Z,102619.23
2023-02-05T23:14:15.056Z,102620.04
2023-02-05T23:16:45.744Z,102621.40
2023-02-05T23:19:20.250Z,102618.79
2023-02-05T23:21:48.980Z,102615.73
2023-02-05T23:24:18.082Z,102616.81
2023-02-05T23:26:48.659Z,102619.63
2023-02-05T23:29:17.401Z,102621.86
2023-02-05T23:31:45.759Z,102616.98
2023-02-05T23:34:14.155Z,102613.27
2023-02-05T23:36:42.237Z,102615.79
2023-02-05T23:39:10.625Z,102616.09
2023-02-05T23:41:40.288Z,102610.86
2023-02-05T23:44:13.123Z,102609.14
2023-02-05T23:46:43.186Z,102613.56
2023-02-05T23:49:11.737Z,102618.14
2023-02-05T23:51:40.407Z,102615.84
2023-02-05T23:54:10.254Z,102615.52
2023-02-05T23:56:38.315Z,102614.50
2023-02-05T23:59:07.617Z,102606.84
